sensor_id;sensor_type;location;lat;lon;timestamp;temperature;humidity
13256;DHT22;37913;48.370;10.930;2023-03-05T00:01:23;0.10;99.90
13256;DHT22;37913;48.370;10.930;2023-03-05T00:03:51;0.10;99.90
13256;DHT22;37913;48.370;10.930;2023-03-05T00:06:18;0.10;99.90
13256;DHT22;37913;48.370;10.930;2023-03-05T00:08:46;0.10;99.90
13256;DHT22;37913;48.370;10.930;2023-03-05T00:11:13;0.10;99.90
13256;DHT22;37913;48.370;10.930;2023-03-05T00:13:41;0.20;99.90
13256;DHT22;37913;48.370;10.930;2023-03-05T00:16:12;0.20;99.90
13256;DHT22;37913;48.370;10.930;2023-03-05T00:18:39;0.20;99.90
13256;DHT22;37913;48.370;10.930;2023-03-05T00:21:17;0.20;99.90
13256;DHT22;37913;48.370;10.930;2023-03-05T00:23:44;0.10;99.90
13256;DHT22;37913;48.370;10.930;2023-03-05T00:26:11;0.10;99.90
13256;DHT22;37913;48.370;10.930;2023-03-05T00:28:38;0.20;99.90
13256;DHT22;37913;48.370;10.930;2023-03-05T00:31:06;0.20;99.90
13256;DHT22;37913;48.370;10.930;2023-03-05T00:33:33;0.20;99.90
13256;DHT22;37913;48.370;10.930;2023-03-05T00:36:05;0.20;99.90
13256;DHT22;37913;48.370;10.930;2023-03-05T00:38:32;0.20;99.90
13256;DHT22;37913;48.370;10.930;2023-03-05T00:41:00;0.20;99.90
13256;DHT22;37913;48.370;10.930;2023-03-05T00:43:27;0.30;99.90
13256;DHT22;37913;48.370;10.930;2023-03-05T00:45:54;0.20;99.90
13256;DHT22;37913;48.370;10.930;2023-03-05T00:48:22;0.20;99.90
13256;DHT22;37913;48.370;10.930;2023-03-05T00:50:50;0.20;99.90
13256;DHT22;37913;48.370;10.930;2023-03-05T00:53:17;0.10;99.90
13256;DHT22;37913;48.370;10.930;2023-03-05T00:55:43;0.10;99.90
13256;DHT22;37913;48.370;10.930;2023-03-05T00:58:10;0.60;99.90
13256;DHT22;37913;48.370;10.930;2023-03-05T01:00:37;0.10;99.90
13256;DHT22;37913;48.370;10.930;2023-03-05T01:03:04;0.10;99.90
13256;DHT22;37913;48.370;10.930;2023-03-05T01:05:33;0.00;99.90
13256;DHT22;37913;48.370;10.930;2023-03-05T01:08:00;0.10;99.90
13256;DHT22;37913;48.370;10.930;2023-03-05T01:10:27;0.10;99.90
13256;DHT22;37913;48.370;10.930;2023-03-05T01:12:55;0.20;99.90
13256;DHT22;37913;48.370;10.930;2023-03-05T01:15:23;0.10;99.90
13256;DHT22;37913;48.370;10.930;2023-03-05T01:17:50;0.10;99.90
13256;DHT22;37913;48.370;10.930;2023-03-05T01:20:19;0.10;99.90
13256;DHT22;37913;48.370;10.930;2023-03-05T01:22:47;0.10;99.90
13256;DHT22;37913;48.370;10.930;2023-03-05T01:25:15;0.10;99.90
13256;DHT22;37913;48.370;10.930;2023-03-05T01:27:42;0.00;99.90
13256;DHT22;37913;48.370;10.930;2023-03-05T01:30:11;0.00;99.90
13256;DHT22;37913;48.370;10.930;2023-03-05T01:32:38;0.00;99.90
13256;DHT22;37913;48.370;10.930;2023-03-05T01:35:06;0.00;99.90
13256;DHT22;37913;48.370;10.930;2023-03-05T01:37:33;0.00;99.90
13256;DHT22;37913;48.370;10.930;2023-03-05T01:40:01;0.00;99.90
13256;DHT22;37913;48.370;10.930;2023-03-05T01:42:28;0.10;99.90
13256;DHT22;37913;48.370;10.930;2023-03-05T01:45:05;0.00;99.90
13256;DHT22;37913;48.370;10.930;2023-03-05T01:47:32;0.00;99.90
13256;DHT22;37913;48.370;10.930;2023-03-05T01:49:59;0.00;99.90
13256;DHT22;37913;48.370;10.930;2023-03-05T01:52:26;0.00;99.90
13256;DHT22;37913;48.370;10.930;2023-03-05T01:54:56;0.10;99.90
13256;DHT22;37913;48.370;10.930;2023-03-05T01:57:28;0.00;99.90
13256;DHT22;37913;48.370;10.930;2023-03-05T02:00:00;0.00;99.90
13256;DHT22;37913;48.370;10.930;2023-03-05T02:02:28;0.10;99.90
13256;DHT22;37913;48.370;10.930;2023-03-05T02:04:59;0.10;99.90
13256;DHT22;37913;48.370;10.930;2023-03-05T02:07:27;0.10;99.90
13256;DHT22;37913;48.370;10.930;2023-03-05T02:09:55;0.20;99.90
13256;DHT22;37913;48.370;10.930;2023-03-05T02:12:22;0.20;99.90
13256;DHT22;37913;48.370;10.930;2023-03-05T02:14:51;0.20;99.90
13256;DHT22;37913;48.370;10.930;2023-03-05T02:17:26;0.20;99.90
13256;DHT22;37913;48.370;10.930;2023-03-05T02:19:55;0.20;99.90
13256;DHT22;37913;48.370;10.930;2023-03-05T02:22:29;0.20;99.90
13256;DHT22;37913;48.370;10.930;2023-03-05T02:24:56;0.20;99.90
13256;DHT22;37913;48.370;10.930;2023-03-05T02:27:26;0.30;99.90
13256;DHT22;37913;48.370;10.930;2023-03-05T02:29:59;0.30;99.90
13256;DHT22;37913;48.370;10.930;2023-03-05T02:32:26;0.20;99.90
13256;DHT22;37913;48.370;10.930;2023-03-05T02:34:53;0.20;99.90
13256;DHT22;37913;48.370;10.930;2023-03-05T02:37:20;0.30;99.90
13256;DHT22;37913;48.370;10.930;2023-03-05T02:39:48;0.30;99.90
13256;DHT22;37913;48.370;10.930;2023-03-05T02:42:15;0.30;99.90
13256;DHT22;37913;48.370;10.930;2023-03-05T02:44:42;0.30;99.90
13256;DHT22;37913;48.370;10.930;2023-03-05T02:47:09;0.30;99.90
13256;DHT22;37913;48.370;10.930;2023-03-05T02:49:36;0.30;99.90
13256;DHT22;37913;48.370;10.930;2023-03-05T02:52:03;0.30;99.90
13256;DHT22;37913;48.370;10.930;2023-03-05T02:54:30;0.30;99.90
13256;DHT22;37913;48.370;10.930;2023-03-05T02:56:59;0.30;99.90
13256;DHT22;37913;48.370;10.930;2023-03-05T02:59:25;0.30;99.90
13256;DHT22;37913;48.370;10.930;2023-03-05T03:01:52;0.30;99.90
13256;DHT22;37913;48.370;10.930;2023-03-05T03:04:19;0.30;99.90
13256;DHT22;37913;48.370;10.930;2023-03-05T03:06:46;0.30;99.90
13256;DHT22;37913;48.370;10.930;2023-03-05T03:09:13;0.40;99.90
13256;DHT22;37913;48.370;10.930;2023-03-05T03:11:40;0.30;99.90
13256;DHT22;37913;48.370;10.930;2023-03-05T03:14:08;0.40;99.90
13256;DHT22;37913;48.370;10.930;2023-03-05T03:16:35;0.40;99.90
13256;DHT22;37913;48.370;10.930;2023-03-05T03:19:02;0.30;99.90
13256;DHT22;37913;48.370;10.930;2023-03-05T03:21:29;0.30;99.90
13256;DHT22;37913;48.370;10.930;2023-03-05T03:23:56;0.30;99.90
13256;DHT22;37913;48.370;10.930;2023-03-05T03:26:23;0.30;99.90
13256;DHT22;37913;48.370;10.930;2023-03-05T03:28:49;0.40;99.90
13256;DHT22;37913;48.370;10.930;2023-03-05T03:31:18;0.40;99.90
13256;DHT22;37913;48.370;10.930;2023-03-05T03:33:45;0.40;99.90
13256;DHT22;37913;48.370;10.930;2023-03-05T03:36:12;0.40;99.90
13256;DHT22;37913;48.370;10.930;2023-03-05T03:38:39;0.40;99.90
13256;DHT22;37913;48.370;10.930;2023-03-05T03:41:06;0.40;99.90
13256;DHT22;37913;48.370;10.930;2023-03-05T03:43:33;0.50;99.90
13256;DHT22;37913;48.370;10.930;2023-03-05T03:46:03;0.50;99.90
13256;DHT22;37913;48.370;10.930;2023-03-05T03:48:31;0.50;99.90
13256;DHT22;37913;48.370;10.930;2023-03-05T03:50:58;0.50;99.90
13256;DHT22;37913;48.370;10.930;2023-03-05T03:53:25;0.50;99.90
13256;DHT22;37913;48.370;10.930;2023-03-05T03:55:57;0.50;99.90
13256;DHT22;37913;48.370;10.930;2023-03-05T03:58:24;0.60;99.90
13256;DHT22;37913;48.370;10.930;2023-03-05T04:00:51;0.60;99.90
13256;DHT22;37913;48.370;10.930;2023-03-05T04:03:17;0.60;99.90
13256;DHT22;37913;48.370;10.930;2023-03-05T04:05:46;0.60;99.90
13256;DHT22;37913;48.370;10.930;2023-03-05T04:08:13;0.60;99.90
13256;DHT22;37913;48.370;10.930;2023-03-05T04:10:39;0.70;99.90
13256;DHT22;37913;48.370;10.930;2023-03-05T04:13:06;0.60;99.90
13256;DHT22;37913;48.370;10.930;2023-03-05T04:15:33;0.70;99.90
13256;DHT22;37913;48.370;10.930;2023-03-05T04:18:00;0.70;99.90
13256;DHT22;37913;48.370;10.930;2023-03-05T04:20:27;0.70;99.90
13256;DHT22;37913;48.370;10.930;2023-03-05T04:22:55;0.70;99.90
13256;DHT22;37913;48.370;10.930;2023-03-05T04:25:22;0.80;99.90
13256;DHT22;37913;48.370;10.930;2023-03-05T04:27:49;0.70;99.90
13256;DHT22;37913;48.370;10.930;2023-03-05T04:30:16;0.80;99.90
13256;DHT22;37913;48.370;10.930;2023-03-05T04:32:43;0.70;99.90
13256;DHT22;37913;48.370;10.930;2023-03-05T04:35:10;0.80;99.90
13256;DHT22;37913;48.370;10.930;2023-03-05T04:37:37;0.80;99.90
13256;DHT22;37913;48.370;10.930;2023-03-05T04:40:07;0.80;99.90
13256;DHT22;37913;48.370;10.930;2023-03-05T04:42:34;0.80;99.90
13256;DHT22;37913;48.370;10.930;2023-03-05T04:45:01;0.80;99.90
13256;DHT22;37913;48.370;10.930;2023-03-05T04:47:27;0.80;99.90
13256;DHT22;37913;48.370;10.930;2023-03-05T04:49:54;0.80;99.90
13256;DHT22;37913;48.370;10.930;2023-03-05T04:52:21;0.90;99.90
13256;DHT22;37913;48.370;10.930;2023-03-05T04:54:48;0.90;99.90
13256;DHT22;37913;48.370;10.930;2023-03-05T04:57:17;0.90;99.90
13256;DHT22;37913;48.370;10.930;2023-03-05T04:59:44;0.90;99.90
13256;DHT22;37913;48.370;10.930;2023-03-05T05:02:11;0.90;99.90
13256;DHT22;37913;48.370;10.930;2023-03-05T05:04:37;1.00;99.90
13256;DHT22;37913;48.370;10.930;2023-03-05T05:07:05;1.00;99.90
13256;DHT22;37913;48.370;10.930;2023-03-05T05:09:32;1.00;99.90
13256;DHT22;37913;48.370;10.930;2023-03-05T05:11:59;1.00;99.90
13256;DHT22;37913;48.370;10.930;2023-03-05T05:14:27;1.00;99.90
13256;DHT22;37913;48.370;10.930;2023-03-05T05:16:54;1.00;99.90
13256;DHT22;37913;48.370;10.930;2023-03-05T05:19:21;1.10;99.90
13256;DHT22;37913;48.370;10.930;2023-03-05T05:21:48;1.10;99.90
13256;DHT22;37913;48.370;10.930;2023-03-05T05:24:15;1.20;99.90
13256;DHT22;37913;48.370;10.930;2023-03-05T05:26:42;1.00;99.90
13256;DHT22;37913;48.370;10.930;2023-03-05T05:29:09;1.10;99.90
13256;DHT22;37913;48.370;10.930;2023-03-05T05:31:37;1.00;99.90
13256;DHT22;37913;48.370;10.930;2023-03-05T05:34:04;1.00;99.90
13256;DHT22;37913;48.370;10.930;2023-03-05T05:36:30;1.00;99.90
13256;DHT22;37913;48.370;10.930;2023-03-05T05:38:57;1.00;99.90
13256;DHT22;37913;48.370;10.930;2023-03-05T05:41:24;1.00;99.90
13256;DHT22;37913;48.370;10.930;2023-03-05T05:43:51;1.00;99.90
13256;DHT22;37913;48.370;10.930;2023-03-05T05:46:20;1.00;99.90
13256;DHT22;37913;48.370;10.930;2023-03-05T05:48:48;1.00;99.90
13256;DHT22;37913;48.370;10.930;2023-03-05T05:51:17;1.00;99.90
13256;DHT22;37913;48.370;10.930;2023-03-05T05:53:45;1.00;99.90
13256;DHT22;37913;48.370;10.930;2023-03-05T05:56:12;1.00;99.90
13256;DHT22;37913;48.370;10.930;2023-03-05T05:58:42;1.00;99.90
13256;DHT22;37913;48.370;10.930;2023-03-05T06:01:14;1.00;99.90
13256;DHT22;37913;48.370;10.930;2023-03-05T06:03:41;1.00;99.90
13256;DHT22;37913;48.370;10.930;2023-03-05T06:06:10;1.00;99.90
13256;DHT22;37913;48.370;10.930;2023-03-05T06:08:38;1.00;99.90
13256;DHT22;37913;48.370;10.930;2023-03-05T06:11:05;1.00;99.90
13256;DHT22;37913;48.370;10.930;2023-03-05T06:13:32;1.60;99.90
13256;DHT22;37913;48.370;10.930;2023-03-05T06:16:00;1.00;99.90
13256;DHT22;37913;48.370;10.930;2023-03-05T06:18:27;1.10;99.90
13256;DHT22;37913;48.370;10.930;2023-03-05T06:20:55;1.00;99.90
13256;DHT22;37913;48.370;10.930;2023-03-05T06:23:24;1.00;99.90
13256;DHT22;37913;48.370;10.930;2023-03-05T06:25:52;1.10;99.90
13256;DHT22;37913;48.370;10.930;2023-03-05T06:28:19;1.10;99.90
13256;DHT22;37913;48.370;10.930;2023-03-05T06:30:46;1.10;99.90
13256;DHT22;37913;48.370;10.930;2023-03-05T06:33:13;1.20;99.90
13256;DHT22;37913;48.370;10.930;2023-03-05T06:35:40;1.10;99.90
13256;DHT22;37913;48.370;10.930;2023-03-05T06:38:08;1.10;99.90
13256;DHT22;37913;48.370;10.930;2023-03-05T06:40:38;1.20;99.90
13256;DHT22;37913;48.370;10.930;2023-03-05T06:43:05;1.20;99.90
13256;DHT22;37913;48.370;10.930;2023-03-05T06:45:32;1.20;99.90
13256;DHT22;37913;48.370;10.930;2023-03-05T06:47:59;1.20;99.90
13256;DHT22;37913;48.370;10.930;2023-03-05T06:50:26;1.20;99.90
13256;DHT22;37913;48.370;10.930;2023-03-05T06:52:53;1.20;99.90
13256;DHT22;37913;48.370;10.930;2023-03-05T06:55:20;1.30;99.90
13256;DHT22;37913;48.370;10.930;2023-03-05T06:57:48;1.30;99.90
13256;DHT22;37913;48.370;10.930;2023-03-05T07:00:15;1.40;99.90
13256;DHT22;37913;48.370;10.930;2023-03-05T07:02:42;1.30;99.90
13256;DHT22;37913;48.370;10.930;2023-03-05T07:05:09;1.30;99.90
13256;DHT22;37913;48.370;10.930;2023-03-05T07:07:36;1.30;99.90
13256;DHT22;37913;48.370;10.930;2023-03-05T07:10:04;1.30;99.90
13256;DHT22;37913;48.370;10.930;2023-03-05T07:12:32;1.30;99.90
13256;DHT22;37913;48.370;10.930;2023-03-05T07:15:01;1.30;99.90
13256;DHT22;37913;48.370;10.930;2023-03-05T07:17:28;1.30;99.90
13256;DHT22;37913;48.370;10.930;2023-03-05T07:19:55;1.30;99.90
13256;DHT22;37913;48.370;10.930;2023-03-05T07:22:22;1.40;99.90
13256;DHT22;37913;48.370;10.930;2023-03-05T07:24:49;1.40;99.90
13256;DHT22;37913;48.370;10.930;2023-03-05T07:27:15;1.50;99.90
13256;DHT22;37913;48.370;10.930;2023-03-05T07:29:42;1.70;99.90
13256;DHT22;37913;48.370;10.930;2023-03-05T07:32:11;1.70;99.90
13256;DHT22;37913;48.370;10.930;2023-03-05T07:34:37;1.70;99.90
13256;DHT22;37913;48.370;10.930;2023-03-05T07:37:04;1.80;99.90
13256;DHT22;37913;48.370;10.930;2023-03-05T07:39:31;1.90;99.90
13256;DHT22;37913;48.370;10.930;2023-03-05T07:41:58;1.90;99.90
13256;DHT22;37913;48.370;10.930;2023-03-05T07:44:25;1.90;99.90
13256;DHT22;37913;48.370;10.930;2023-03-05T07:46:52;1.80;99.90
13256;DHT22;37913;48.370;10.930;2023-03-05T07:49:20;1.80;99.90
13256;DHT22;37913;48.370;10.930;2023-03-05T07:51:48;1.90;99.90
13256;DHT22;37913;48.370;10.930;2023-03-05T07:54:15;1.90;99.90
13256;DHT22;37913;48.370;10.930;2023-03-05T07:56:42;1.90;99.90
13256;DHT22;37913;48.370;10.930;2023-03-05T07:59:10;1.90;99.90
13256;DHT22;37913;48.370;10.930;2023-03-05T08:01:38;1.80;99.90
13256;DHT22;37913;48.370;10.930;2023-03-05T08:04:06;1.90;99.90
13256;DHT22;37913;48.370;10.930;2023-03-05T08:06:38;1.90;99.90
13256;DHT22;37913;48.370;10.930;2023-03-05T08:09:05;2.20;99.90
13256;DHT22;37913;48.370;10.930;2023-03-05T08:11:33;2.10;99.90
13256;DHT22;37913;48.370;10.930;2023-03-05T08:14:00;2.10;99.90
13256;DHT22;37913;48.370;10.930;2023-03-05T08:16:26;2.60;99.90
13256;DHT22;37913;48.370;10.930;2023-03-05T08:18:54;3.00;99.90
13256;DHT22;37913;48.370;10.930;2023-03-05T08:21:24;2.20;99.90
13256;DHT22;37913;48.370;10.930;2023-03-05T08:23:55;2.30;99.90
13256;DHT22;37913;48.370;10.930;2023-03-05T08:26:24;2.50;99.90
13256;DHT22;37913;48.370;10.930;2023-03-05T08:28:51;2.70;99.90
13256;DHT22;37913;48.370;10.930;2023-03-05T08:31:21;2.90;99.90
13256;DHT22;37913;48.370;10.930;2023-03-05T08:33:49;3.20;99.90
13256;DHT22;37913;48.370;10.930;2023-03-05T08:36:16;2.90;99.90
13256;DHT22;37913;48.370;10.930;2023-03-05T08:38:43;4.40;99.90
13256;DHT22;37913;48.370;10.930;2023-03-05T08:41:13;3.40;99.90
13256;DHT22;37913;48.370;10.930;2023-03-05T08:43:40;2.90;99.90
13256;DHT22;37913;48.370;10.930;2023-03-05T08:46:08;3.10;99.90
13256;DHT22;37913;48.370;10.930;2023-03-05T08:48:35;3.20;99.90
13256;DHT22;37913;48.370;10.930;2023-03-05T08:51:06;3.30;99.90
13256;DHT22;37913;48.370;10.930;2023-03-05T08:53:33;3.30;99.90
13256;DHT22;37913;48.370;10.930;2023-03-05T08:56:00;3.30;99.90
13256;DHT22;37913;48.370;10.930;2023-03-05T08:58:28;3.30;99.90
13256;DHT22;37913;48.370;10.930;2023-03-05T09:00:55;3.40;99.90
13256;DHT22;37913;48.370;10.930;2023-03-05T09:03:22;3.30;99.90
13256;DHT22;37913;48.370;10.930;2023-03-05T09:05:49;3.50;99.90
13256;DHT22;37913;48.370;10.930;2023-03-05T09:08:17;3.30;99.90
13256;DHT22;37913;48.370;10.930;2023-03-05T09:10:44;3.60;99.90
13256;DHT22;37913;48.370;10.930;2023-03-05T09:13:11;3.40;99.90
13256;DHT22;37913;48.370;10.930;2023-03-05T09:15:39;3.40;99.90
13256;DHT22;37913;48.370;10.930;2023-03-05T09:18:06;3.30;99.90
13256;DHT22;37913;48.370;10.930;2023-03-05T09:20:34;3.60;99.90
13256;DHT22;37913;48.370;10.930;2023-03-05T09:23:01;3.50;99.90
13256;DHT22;37913;48.370;10.930;2023-03-05T09:25:28;3.50;99.90
13256;DHT22;37913;48.370;10.930;2023-03-05T09:27:55;3.30;99.90
13256;DHT22;37913;48.370;10.930;2023-03-05T09:30:22;3.30;99.90
13256;DHT22;37913;48.370;10.930;2023-03-05T09:32:50;3.20;99.90
13256;DHT22;37913;48.370;10.930;2023-03-05T09:35:17;4.40;99.90
13256;DHT22;37913;48.370;10.930;2023-03-05T09:37:44;3.40;99.90
13256;DHT22;37913;48.370;10.930;2023-03-05T09:40:14;3.50;99.90
13256;DHT22;37913;48.370;10.930;2023-03-05T09:42:57;3.60;99.90
13256;DHT22;37913;48.370;10.930;2023-03-05T09:45:28;3.70;99.90
13256;DHT22;37913;48.370;10.930;2023-03-05T09:48:05;3.80;99.90
13256;DHT22;37913;48.370;10.930;2023-03-05T09:50:41;3.80;99.90
13256;DHT22;37913;48.370;10.930;2023-03-05T09:53:30;3.90;99.90
13256;DHT22;37913;48.370;10.930;2023-03-05T09:56:03;3.80;99.90
13256;DHT22;37913;48.370;10.930;2023-03-05T09:58:38;3.80;99.90
13256;DHT22;37913;48.370;10.930;2023-03-05T10:01:09;3.80;99.90
13256;DHT22;37913;48.370;10.930;2023-03-05T10:03:48;3.70;99.90
13256;DHT22;37913;48.370;10.930;2023-03-05T10:06:21;3.80;99.90
13256;DHT22;37913;48.370;10.930;2023-03-05T10:08:52;3.80;99.90
13256;DHT22;37913;48.370;10.930;2023-03-05T10:11:33;4.00;99.90
13256;DHT22;37913;48.370;10.930;2023-03-05T10:14:02;3.60;99.90
13256;DHT22;37913;48.370;10.930;2023-03-05T10:16:52;3.90;99.90
13256;DHT22;37913;48.370;10.930;2023-03-05T10:19:40;3.90;99.90
13256;DHT22;37913;48.370;10.930;2023-03-05T10:22:16;4.10;99.90
13256;DHT22;37913;48.370;10.930;2023-03-05T10:24:56;4.20;99.90
13256;DHT22;37913;48.370;10.930;2023-03-05T10:27:37;4.50;99.90
13256;DHT22;37913;48.370;10.930;2023-03-05T10:30:17;4.30;99.90
13256;DHT22;37913;48.370;10.930;2023-03-05T10:32:51;4.40;99.90
13256;DHT22;37913;48.370;10.930;2023-03-05T10:35:41;4.60;99.90
13256;DHT22;37913;48.370;10.930;2023-03-05T10:41:18;4.10;99.90
13256;DHT22;37913;48.370;10.930;2023-03-05T10:43:51;4.00;99.90
13256;DHT22;37913;48.370;10.930;2023-03-05T10:46:22;4.00;99.90
13256;DHT22;37913;48.370;10.930;2023-03-05T10:48:56;4.20;99.90
13256;DHT22;37913;48.370;10.930;2023-03-05T10:51:32;4.20;99.90
13256;DHT22;37913;48.370;10.930;2023-03-05T10:54:03;4.40;99.90
13256;DHT22;37913;48.370;10.930;2023-03-05T10:56:36;4.70;99.90
13256;DHT22;37913;48.370;10.930;2023-03-05T10:59:02;4.60;99.90
13256;DHT22;37913;48.370;10.930;2023-03-05T11:01:30;4.70;99.90
13256;DHT22;37913;48.370;10.930;2023-03-05T11:03:59;4.90;99.90
13256;DHT22;37913;48.370;10.930;2023-03-05T11:06:32;4.90;99.90
13256;DHT22;37913;48.370;10.930;2023-03-05T11:09:21;4.70;99.90
13256;DHT22;37913;48.370;10.930;2023-03-05T11:12:03;5.00;99.90
13256;DHT22;37913;48.370;10.930;2023-03-05T11:14:35;5.00;99.90
13256;DHT22;37913;48.370;10.930;2023-03-05T11:17:23;4.90;99.90
13256;DHT22;37913;48.370;10.930;2023-03-05T11:19:52;4.90;99.90
13256;DHT22;37913;48.370;10.930;2023-03-05T11:22:21;4.80;99.90
13256;DHT22;37913;48.370;10.930;2023-03-05T11:25:04;4.90;99.90
13256;DHT22;37913;48.370;10.930;2023-03-05T11:27:35;5.00;99.90
13256;DHT22;37913;48.370;10.930;2023-03-05T11:30:05;5.00;99.90
13256;DHT22;37913;48.370;10.930;2023-03-05T11:32:43;5.10;99.90
13256;DHT22;37913;48.370;10.930;2023-03-05T11:35:29;5.30;99.90
13256;DHT22;37913;48.370;10.930;2023-03-05T11:38:01;5.50;99.90
13256;DHT22;37913;48.370;10.930;2023-03-05T11:40:30;5.20;99.90
13256;DHT22;37913;48.370;10.930;2023-03-05T11:43:00;5.30;99.90
13256;DHT22;37913;48.370;10.930;2023-03-05T11:45:30;5.60;99.90
13256;DHT22;37913;48.370;10.930;2023-03-05T11:48:00;5.40;99.90
13256;DHT22;37913;48.370;10.930;2023-03-05T11:50:33;5.50;99.90
13256;DHT22;37913;48.370;10.930;2023-03-05T11:53:04;5.40;99.90
13256;DHT22;37913;48.370;10.930;2023-03-05T11:55:39;5.40;99.90
13256;DHT22;37913;48.370;10.930;2023-03-05T11:58:21;5.40;99.90
13256;DHT22;37913;48.370;10.930;2023-03-05T12:00:50;5.40;99.90
13256;DHT22;37913;48.370;10.930;2023-03-05T12:03:18;5.40;99.90
13256;DHT22;37913;48.370;10.930;2023-03-05T12:05:48;5.40;99.90
13256;DHT22;37913;48.370;10.930;2023-03-05T12:08:20;5.50;99.90
13256;DHT22;37913;48.370;10.930;2023-03-05T12:10:50;5.60;99.90
13256;DHT22;37913;48.370;10.930;2023-03-05T12:13:22;5.60;99.90
13256;DHT22;37913;48.370;10.930;2023-03-05T12:16:08;5.70;99.90
13256;DHT22;37913;48.370;10.930;2023-03-05T12:18:46;5.80;99.90
13256;DHT22;37913;48.370;10.930;2023-03-05T12:21:23;5.50;99.90
13256;DHT22;37913;48.370;10.930;2023-03-05T12:23:55;5.60;99.90
13256;DHT22;37913;48.370;10.930;2023-03-05T12:26:54;5.60;99.90
13256;DHT22;37913;48.370;10.930;2023-03-05T12:29:28;5.60;99.90
13256;DHT22;37913;48.370;10.930;2023-03-05T12:31:55;5.70;99.90
13256;DHT22;37913;48.370;10.930;2023-03-05T12:40:33;6.30;99.90
13256;DHT22;37913;48.370;10.930;2023-03-05T12:43:01;6.30;99.90
13256;DHT22;37913;48.370;10.930;2023-03-05T12:45:33;6.50;99.90
13256;DHT22;37913;48.370;10.930;2023-03-05T12:51:05;6.50;99.90
13256;DHT22;37913;48.370;10.930;2023-03-05T12:53:32;6.60;99.90
13256;DHT22;37913;48.370;10.930;2023-03-05T12:56:04;6.60;99.90
13256;DHT22;37913;48.370;10.930;2023-03-05T12:58:39;6.20;99.90
13256;DHT22;37913;48.370;10.930;2023-03-05T13:01:33;5.50;99.90
13256;DHT22;37913;48.370;10.930;2023-03-05T13:04:03;5.40;99.90
13256;DHT22;37913;48.370;10.930;2023-03-05T13:06:36;5.50;99.90
13256;DHT22;37913;48.370;10.930;2023-03-05T13:09:06;5.50;99.90
13256;DHT22;37913;48.370;10.930;2023-03-05T13:11:36;5.40;99.90
13256;DHT22;37913;48.370;10.930;2023-03-05T13:14:31;5.30;99.90
13256;DHT22;37913;48.370;10.930;2023-03-05T13:16:59;5.20;99.90
13256;DHT22;37913;48.370;10.930;2023-03-05T13:19:27;5.00;99.90
13256;DHT22;37913;48.370;10.930;2023-03-05T13:21:59;5.00;99.90
13256;DHT22;37913;48.370;10.930;2023-03-05T13:24:27;5.10;99.90
13256;DHT22;37913;48.370;10.930;2023-03-05T13:26:56;5.20;99.90
13256;DHT22;37913;48.370;10.930;2023-03-05T13:29:24;5.40;99.90
13256;DHT22;37913;48.370;10.930;2023-03-05T13:31:54;5.40;99.90
13256;DHT22;37913;48.370;10.930;2023-03-05T13:34:23;5.40;99.90
13256;DHT22;37913;48.370;10.930;2023-03-05T13:36:55;5.50;99.90
13256;DHT22;37913;48.370;10.930;2023-03-05T13:39:26;5.40;99.90
13256;DHT22;37913;48.370;10.930;2023-03-05T13:42:02;5.40;99.90
13256;DHT22;37913;48.370;10.930;2023-03-05T13:44:30;5.40;99.90
13256;DHT22;37913;48.370;10.930;2023-03-05T13:47:15;5.30;99.90
13256;DHT22;37913;48.370;10.930;2023-03-05T13:49:42;5.20;99.90
13256;DHT22;37913;48.370;10.930;2023-03-05T13:52:10;5.20;99.90
13256;DHT22;37913;48.370;10.930;2023-03-05T13:54:41;5.20;99.90
13256;DHT22;37913;48.370;10.930;2023-03-05T13:57:31;5.30;99.90
13256;DHT22;37913;48.370;10.930;2023-03-05T13:59:58;5.10;99.90
13256;DHT22;37913;48.370;10.930;2023-03-05T14:02:27;5.20;99.90
13256;DHT22;37913;48.370;10.930;2023-03-05T14:04:54;5.20;99.90
13256;DHT22;37913;48.370;10.930;2023-03-05T14:07:28;5.20;99.90
13256;DHT22;37913;48.370;10.930;2023-03-05T14:09:56;5.30;99.90
13256;DHT22;37913;48.370;10.930;2023-03-05T14:12:29;5.40;99.90
13256;DHT22;37913;48.370;10.930;2023-03-05T14:14:59;5.40;99.90
13256;DHT22;37913;48.370;10.930;2023-03-05T14:17:35;5.40;99.90
13256;DHT22;37913;48.370;10.930;2023-03-05T14:20:07;5.40;99.90
13256;DHT22;37913;48.370;10.930;2023-03-05T14:22:36;5.20;99.90
13256;DHT22;37913;48.370;10.930;2023-03-05T14:25:05;5.30;99.90
13256;DHT22;37913;48.370;10.930;2023-03-05T14:27:51;5.10;99.90
13256;DHT22;37913;48.370;10.930;2023-03-05T14:30:19;5.30;99.90
13256;DHT22;37913;48.370;10.930;2023-03-05T14:32:47;5.30;99.90
13256;DHT22;37913;48.370;10.930;2023-03-05T14:35:17;5.40;99.90
13256;DHT22;37913;48.370;10.930;2023-03-05T14:37:46;5.40;99.90
13256;DHT22;37913;48.370;10.930;2023-03-05T14:40:19;5.30;99.90
13256;DHT22;37913;48.370;10.930;2023-03-05T14:42:52;5.30;99.90
13256;DHT22;37913;48.370;10.930;2023-03-05T14:45:21;5.30;99.90
13256;DHT22;37913;48.370;10.930;2023-03-05T14:47:49;5.30;99.90
13256;DHT22;37913;48.370;10.930;2023-03-05T14:50:18;5.30;99.90
13256;DHT22;37913;48.370;10.930;2023-03-05T14:52:46;5.10;99.90
13256;DHT22;37913;48.370;10.930;2023-03-05T14:55:15;4.90;99.90
13256;DHT22;37913;48.370;10.930;2023-03-05T14:57:42;4.90;99.90
13256;DHT22;37913;48.370;10.930;2023-03-05T15:00:16;4.90;99.90
13256;DHT22;37913;48.370;10.930;2023-03-05T15:02:43;4.70;99.90
13256;DHT22;37913;48.370;10.930;2023-03-05T15:05:10;4.70;99.90
13256;DHT22;37913;48.370;10.930;2023-03-05T15:07:37;4.60;99.90
13256;DHT22;37913;48.370;10.930;2023-03-05T15:10:05;4.50;99.90
13256;DHT22;37913;48.370;10.930;2023-03-05T15:12:33;4.40;99.90
13256;DHT22;37913;48.370;10.930;2023-03-05T15:15:03;4.40;99.90
13256;DHT22;37913;48.370;10.930;2023-03-05T15:17:34;4.30;99.90
13256;DHT22;37913;48.370;10.930;2023-03-05T15:20:03;4.40;99.90
13256;DHT22;37913;48.370;10.930;2023-03-05T15:22:35;4.30;99.90
13256;DHT22;37913;48.370;10.930;2023-03-05T15:25:02;4.30;99.90
13256;DHT22;37913;48.370;10.930;2023-03-05T15:27:29;4.30;99.90
13256;DHT22;37913;48.370;10.930;2023-03-05T15:29:56;4.20;99.90
13256;DHT22;37913;48.370;10.930;2023-03-05T15:32:25;4.20;99.90
13256;DHT22;37913;48.370;10.930;2023-03-05T15:34:53;4.20;99.90
13256;DHT22;37913;48.370;10.930;2023-03-05T15:37:20;4.20;99.90
13256;DHT22;37913;48.370;10.930;2023-03-05T15:39:47;4.20;99.90
13256;DHT22;37913;48.370;10.930;2023-03-05T15:42:14;4.20;99.90
13256;DHT22;37913;48.370;10.930;2023-03-05T15:44:41;4.20;99.90
13256;DHT22;37913;48.370;10.930;2023-03-05T15:47:08;4.10;99.90
13256;DHT22;37913;48.370;10.930;2023-03-05T15:49:35;4.10;99.90
13256;DHT22;37913;48.370;10.930;2023-03-05T15:52:03;4.20;99.90
13256;DHT22;37913;48.370;10.930;2023-03-05T15:54:30;4.10;99.90
13256;DHT22;37913;48.370;10.930;2023-03-05T15:56:57;4.10;99.90